sensor_id;sensor_type;location;lat;lon;timestamp;P1;durP1;ratioP1;P2;durP2;ratioP2
71464;SDS011;59274;49.874;9.154;2023-02-15T00:02:25;38.58;;;13.20;;
71464;SDS011;59274;49.874;9.154;2023-02-15T00:04:51;38.38;;;14.50;;
71464;SDS011;59274;49.874;9.154;2023-02-15T00:07:17;35.83;;;13.32;;
71464;SDS011;59274;49.874;9.154;2023-02-15T00:09:46;39.93;;;14.57;;
71464;SDS011;59274;49.874;9.154;2023-02-15T00:12:12;39.13;;;12.90;;
71464;SDS011;59274;49.874;9.154;2023-02-15T00:14:38;42.35;;;14.35;;
71464;SDS011;59274;49.874;9.154;2023-02-15T00:17:04;38.33;;;13.50;;
71464;SDS011;59274;49.874;9.154;2023-02-15T00:19:29;39.35;;;13.80;;
71464;SDS011;59274;49.874;9.154;2023-02-15T00:21:54;42.95;;;14.88;;
71464;SDS011;59274;49.874;9.154;2023-02-15T00:24:20;37.13;;;13.47;;
71464;SDS011;59274;49.874;9.154;2023-02-15T00:26:46;41.40;;;13.50;;
71464;SDS011;59274;49.874;9.154;2023-02-15T00:29:13;38.40;;;13.37;;
71464;SDS011;59274;49.874;9.154;2023-02-15T00:31:40;41.60;;;13.35;;
71464;SDS011;59274;49.874;9.154;2023-02-15T00:34:07;40.17;;;14.48;;
71464;SDS011;59274;49.874;9.154;2023-02-15T00:36:36;39.67;;;13.73;;
71464;SDS011;59274;49.874;9.154;2023-02-15T00:39:02;43.17;;;14.30;;
71464;SDS011;59274;49.874;9.154;2023-02-15T00:41:29;38.63;;;14.20;;
71464;SDS011;59274;49.874;9.154;2023-02-15T00:43:55;36.10;;;13.38;;
71464;SDS011;59274;49.874;9.154;2023-02-15T00:46:21;42.93;;;14.73;;
71464;SDS011;59274;49.874;9.154;2023-02-15T00:48:46;42.20;;;14.00;;
71464;SDS011;59274;49.874;9.154;2023-02-15T00:51:12;40.53;;;14.40;;
71464;SDS011;59274;49.874;9.154;2023-02-15T00:53:37;41.23;;;14.27;;
71464;SDS011;59274;49.874;9.154;2023-02-15T00:56:03;37.38;;;13.13;;
71464;SDS011;59274;49.874;9.154;2023-02-15T00:58:28;36.17;;;13.63;;
71464;SDS011;59274;49.874;9.154;2023-02-15T01:00:54;35.97;;;13.27;;
71464;SDS011;59274;49.874;9.154;2023-02-15T01:03:20;39.07;;;13.50;;
71464;SDS011;59274;49.874;9.154;2023-02-15T01:05:46;40.50;;;12.93;;
71464;SDS011;59274;49.874;9.154;2023-02-15T01:08:13;38.42;;;13.05;;
71464;SDS011;59274;49.874;9.154;2023-02-15T01:10:38;39.10;;;13.37;;
71464;SDS011;59274;49.874;9.154;2023-02-15T01:13:04;41.73;;;14.50;;
71464;SDS011;59274;49.874;9.154;2023-02-15T01:15:29;36.10;;;12.90;;
71464;SDS011;59274;49.874;9.154;2023-02-15T01:17:55;36.30;;;13.13;;
71464;SDS011;59274;49.874;9.154;2023-02-15T01:20:21;36.37;;;13.20;;
71464;SDS011;59274;49.874;9.154;2023-02-15T01:22:54;40.13;;;13.20;;
71464;SDS011;59274;49.874;9.154;2023-02-15T01:25:21;40.47;;;13.63;;
71464;SDS011;59274;49.874;9.154;2023-02-15T01:27:48;46.17;;;15.35;;
71464;SDS011;59274;49.874;9.154;2023-02-15T01:30:14;38.33;;;14.30;;
71464;SDS011;59274;49.874;9.154;2023-02-15T01:32:40;39.88;;;14.43;;
71464;SDS011;59274;49.874;9.154;2023-02-15T01:35:06;41.33;;;12.75;;
71464;SDS011;59274;49.874;9.154;2023-02-15T01:37:33;39.83;;;13.48;;
71464;SDS011;59274;49.874;9.154;2023-02-15T01:39:59;38.00;;;13.50;;
71464;SDS011;59274;49.874;9.154;2023-02-15T01:42:25;42.80;;;14.23;;
71464;SDS011;59274;49.874;9.154;2023-02-15T01:47:22;37.70;;;13.57;;
71464;SDS011;59274;49.874;9.154;2023-02-15T01:50:03;41.15;;;13.52;;
71464;SDS011;59274;49.874;9.154;2023-02-15T01:52:36;41.13;;;14.10;;
71464;SDS011;59274;49.874;9.154;2023-02-15T01:55:04;40.25;;;13.15;;
71464;SDS011;59274;49.874;9.154;2023-02-15T01:57:32;42.60;;;13.85;;
71464;SDS011;59274;49.874;9.154;2023-02-15T01:59:58;34.33;;;13.05;;
71464;SDS011;59274;49.874;9.154;2023-02-15T02:02:26;37.45;;;13.27;;
71464;SDS011;59274;49.874;9.154;2023-02-15T02:04:54;39.05;;;13.18;;
71464;SDS011;59274;49.874;9.154;2023-02-15T02:07:26;41.03;;;13.77;;
71464;SDS011;59274;49.874;9.154;2023-02-15T02:09:53;43.97;;;13.65;;
71464;SDS011;59274;49.874;9.154;2023-02-15T02:12:18;39.37;;;13.23;;
71464;SDS011;59274;49.874;9.154;2023-02-15T02:14:46;37.35;;;13.80;;
71464;SDS011;59274;49.874;9.154;2023-02-15T02:31:31;37.73;;;13.63;;
71464;SDS011;59274;49.874;9.154;2023-02-15T02:34:16;43.75;;;13.82;;
71464;SDS011;59274;49.874;9.154;2023-02-15T02:36:52;33.80;;;12.07;;
71464;SDS011;59274;49.874;9.154;2023-02-15T02:39:37;37.08;;;13.32;;
71464;SDS011;59274;49.874;9.154;2023-02-15T02:42:25;36.70;;;13.10;;
71464;SDS011;59274;49.874;9.154;2023-02-15T02:44:54;37.17;;;13.75;;
71464;SDS011;59274;49.874;9.154;2023-02-15T02:47:32;41.45;;;13.80;;
71464;SDS011;59274;49.874;9.154;2023-02-15T02:50:06;39.37;;;12.97;;
71464;SDS011;59274;49.874;9.154;2023-02-15T02:58:10;39.88;;;14.35;;
71464;SDS011;59274;49.874;9.154;2023-02-15T03:06:17;39.92;;;13.73;;
71464;SDS011;59274;49.874;9.154;2023-02-15T03:08:50;41.35;;;14.07;;
71464;SDS011;59274;49.874;9.154;2023-02-15T03:11:22;42.30;;;13.95;;
71464;SDS011;59274;49.874;9.154;2023-02-15T03:13:48;37.67;;;13.47;;
71464;SDS011;59274;49.874;9.154;2023-02-15T03:16:14;38.75;;;13.55;;
71464;SDS011;59274;49.874;9.154;2023-02-15T03:18:52;41.80;;;13.70;;
71464;SDS011;59274;49.874;9.154;2023-02-15T03:21:31;40.13;;;13.80;;
71464;SDS011;59274;49.874;9.154;2023-02-15T03:24:04;39.88;;;13.85;;
71464;SDS011;59274;49.874;9.154;2023-02-15T03:26:38;37.00;;;12.70;;
71464;SDS011;59274;49.874;9.154;2023-02-15T03:29:05;37.13;;;13.43;;
71464;SDS011;59274;49.874;9.154;2023-02-15T03:31:33;37.72;;;13.60;;
71464;SDS011;59274;49.874;9.154;2023-02-15T03:34:03;39.17;;;13.87;;
71464;SDS011;59274;49.874;9.154;2023-02-15T03:42:35;37.97;;;13.15;;
71464;SDS011;59274;49.874;9.154;2023-02-15T03:44:49;37.58;;;13.05;;
71464;SDS011;59274;49.874;9.154;2023-02-15T03:47:23;37.63;;;13.03;;
71464;SDS011;59274;49.874;9.154;2023-02-15T03:50:06;36.95;;;12.07;;
71464;SDS011;59274;49.874;9.154;2023-02-15T03:52:55;35.28;;;13.18;;
71464;SDS011;59274;49.874;9.154;2023-02-15T03:55:25;35.92;;;12.23;;
71464;SDS011;59274;49.874;9.154;2023-02-15T03:57:51;36.17;;;12.50;;
71464;SDS011;59274;49.874;9.154;2023-02-15T04:00:36;36.17;;;12.07;;
71464;SDS011;59274;49.874;9.154;2023-02-15T04:05:56;37.90;;;13.45;;
71464;SDS011;59274;49.874;9.154;2023-02-15T04:08:21;37.00;;;13.40;;
71464;SDS011;59274;49.874;9.154;2023-02-15T04:11:07;34.28;;;12.43;;
71464;SDS011;59274;49.874;9.154;2023-02-15T04:13:32;34.93;;;11.93;;
71464;SDS011;59274;49.874;9.154;2023-02-15T04:15:58;39.88;;;13.38;;
71464;SDS011;59274;49.874;9.154;2023-02-15T04:18:30;34.37;;;12.43;;
71464;SDS011;59274;49.874;9.154;2023-02-15T04:21:14;33.72;;;12.35;;
71464;SDS011;59274;49.874;9.154;2023-02-15T04:23:58;39.03;;;13.30;;
71464;SDS011;59274;49.874;9.154;2023-02-15T04:26:42;36.72;;;12.55;;
71464;SDS011;59274;49.874;9.154;2023-02-15T04:29:08;36.00;;;12.57;;
71464;SDS011;59274;49.874;9.154;2023-02-15T04:31:33;37.87;;;12.13;;
71464;SDS011;59274;49.874;9.154;2023-02-15T04:33:59;37.75;;;12.90;;
71464;SDS011;59274;49.874;9.154;2023-02-15T04:36:24;36.23;;;12.30;;
71464;SDS011;59274;49.874;9.154;2023-02-15T04:38:50;34.90;;;11.73;;
71464;SDS011;59274;49.874;9.154;2023-02-15T04:41:15;37.07;;;12.30;;
71464;SDS011;59274;49.874;9.154;2023-02-15T04:43:40;33.10;;;11.60;;
71464;SDS011;59274;49.874;9.154;2023-02-15T04:46:06;31.07;;;11.57;;
71464;SDS011;59274;49.874;9.154;2023-02-15T04:48:31;33.30;;;11.63;;
71464;SDS011;59274;49.874;9.154;2023-02-15T04:50:57;30.75;;;11.15;;
71464;SDS011;59274;49.874;9.154;2023-02-15T04:53:22;32.87;;;11.00;;
71464;SDS011;59274;49.874;9.154;2023-02-15T04:55:47;34.57;;;11.97;;
71464;SDS011;59274;49.874;9.154;2023-02-15T04:58:13;33.73;;;12.00;;
71464;SDS011;59274;49.874;9.154;2023-02-15T05:00:38;36.23;;;12.33;;
71464;SDS011;59274;49.874;9.154;2023-02-15T05:03:04;33.90;;;11.52;;
71464;SDS011;59274;49.874;9.154;2023-02-15T05:05:29;35.57;;;12.13;;
71464;SDS011;59274;49.874;9.154;2023-02-15T05:07:55;37.33;;;11.63;;
71464;SDS011;59274;49.874;9.154;2023-02-15T05:10:20;34.37;;;11.50;;
71464;SDS011;59274;49.874;9.154;2023-02-15T05:12:45;35.20;;;12.07;;
71464;SDS011;59274;49.874;9.154;2023-02-15T05:15:11;37.85;;;11.93;;
71464;SDS011;59274;49.874;9.154;2023-02-15T05:17:36;38.70;;;12.00;;
71464;SDS011;59274;49.874;9.154;2023-02-15T05:20:02;37.47;;;13.20;;
71464;SDS011;59274;49.874;9.154;2023-02-15T05:22:28;39.72;;;12.63;;
71464;SDS011;59274;49.874;9.154;2023-02-15T05:24:53;38.97;;;12.70;;
71464;SDS011;59274;49.874;9.154;2023-02-15T05:27:37;34.83;;;12.02;;
71464;SDS011;59274;49.874;9.154;2023-02-15T05:30:21;40.40;;;12.73;;
71464;SDS011;59274;49.874;9.154;2023-02-15T05:32:46;37.37;;;13.47;;
71464;SDS011;59274;49.874;9.154;2023-02-15T05:35:13;35.73;;;12.70;;
71464;SDS011;59274;49.874;9.154;2023-02-15T05:37:40;34.85;;;12.27;;
71464;SDS011;59274;49.874;9.154;2023-02-15T05:40:05;39.40;;;13.67;;
71464;SDS011;59274;49.874;9.154;2023-02-15T05:42:32;39.75;;;13.43;;
71464;SDS011;59274;49.874;9.154;2023-02-15T05:44:58;37.77;;;11.83;;
71464;SDS011;59274;49.874;9.154;2023-02-15T05:47:23;34.57;;;12.23;;
71464;SDS011;59274;49.874;9.154;2023-02-15T05:49:48;35.00;;;12.43;;
71464;SDS011;59274;49.874;9.154;2023-02-15T05:52:14;38.10;;;13.80;;
71464;SDS011;59274;49.874;9.154;2023-02-15T05:54:39;34.73;;;12.70;;
71464;SDS011;59274;49.874;9.154;2023-02-15T05:57:05;36.73;;;12.87;;
71464;SDS011;59274;49.874;9.154;2023-02-15T05:59:30;42.50;;;12.70;;
71464;SDS011;59274;49.874;9.154;2023-02-15T06:01:56;33.88;;;12.63;;
71464;SDS011;59274;49.874;9.154;2023-02-15T06:04:21;35.03;;;12.85;;
71464;SDS011;59274;49.874;9.154;2023-02-15T06:06:46;38.90;;;12.30;;
71464;SDS011;59274;49.874;9.154;2023-02-15T06:09:12;40.10;;;12.83;;
71464;SDS011;59274;49.874;9.154;2023-02-15T06:11:38;35.08;;;12.60;;
71464;SDS011;59274;49.874;9.154;2023-02-15T06:14:03;38.73;;;12.67;;
71464;SDS011;59274;49.874;9.154;2023-02-15T06:16:29;42.40;;;12.77;;
71464;SDS011;59274;49.874;9.154;2023-02-15T06:18:55;35.53;;;11.70;;
71464;SDS011;59274;49.874;9.154;2023-02-15T06:21:20;37.67;;;13.17;;
71464;SDS011;59274;49.874;9.154;2023-02-15T06:23:46;35.17;;;12.27;;
71464;SDS011;59274;49.874;9.154;2023-02-15T06:26:11;37.50;;;11.60;;
71464;SDS011;59274;49.874;9.154;2023-02-15T06:28:36;40.00;;;13.30;;
71464;SDS011;59274;49.874;9.154;2023-02-15T06:31:02;36.93;;;11.83;;
71464;SDS011;59274;49.874;9.154;2023-02-15T06:33:28;43.22;;;14.48;;
71464;SDS011;59274;49.874;9.154;2023-02-15T06:35:55;43.20;;;13.90;;
71464;SDS011;59274;49.874;9.154;2023-02-15T06:38:21;38.67;;;12.63;;
71464;SDS011;59274;49.874;9.154;2023-02-15T06:40:47;38.40;;;12.90;;
71464;SDS011;59274;49.874;9.154;2023-02-15T06:43:12;35.50;;;12.57;;
71464;SDS011;59274;49.874;9.154;2023-02-15T06:45:38;36.43;;;12.10;;
71464;SDS011;59274;49.874;9.154;2023-02-15T06:48:04;39.50;;;12.67;;
71464;SDS011;59274;49.874;9.154;2023-02-15T06:50:32;37.40;;;12.48;;
71464;SDS011;59274;49.874;9.154;2023-02-15T06:52:57;38.72;;;12.95;;
71464;SDS011;59274;49.874;9.154;2023-02-15T06:55:24;37.37;;;12.70;;
71464;SDS011;59274;49.874;9.154;2023-02-15T06:57:50;32.70;;;11.45;;
71464;SDS011;59274;49.874;9.154;2023-02-15T07:00:15;31.27;;;11.40;;
71464;SDS011;59274;49.874;9.154;2023-02-15T07:02:42;30.05;;;10.73;;
71464;SDS011;59274;49.874;9.154;2023-02-15T07:05:08;31.08;;;11.32;;
71464;SDS011;59274;49.874;9.154;2023-02-15T07:07:33;27.17;;;10.47;;
71464;SDS011;59274;49.874;9.154;2023-02-15T07:09:59;28.17;;;10.60;;
71464;SDS011;59274;49.874;9.154;2023-02-15T07:12:24;33.40;;;11.87;;
71464;SDS011;59274;49.874;9.154;2023-02-15T07:15:09;27.38;;;9.88;;
71464;SDS011;59274;49.874;9.154;2023-02-15T07:17:36;28.80;;;10.75;;
71464;SDS011;59274;49.874;9.154;2023-02-15T07:20:03;30.73;;;10.90;;
71464;SDS011;59274;49.874;9.154;2023-02-15T07:22:36;30.75;;;11.02;;
71464;SDS011;59274;49.874;9.154;2023-02-15T07:25:06;27.27;;;11.20;;
71464;SDS011;59274;49.874;9.154;2023-02-15T07:27:32;30.45;;;9.93;;
71464;SDS011;59274;49.874;9.154;2023-02-15T07:29:58;29.40;;;10.88;;
71464;SDS011;59274;49.874;9.154;2023-02-15T07:32:26;28.30;;;10.67;;
71464;SDS011;59274;49.874;9.154;2023-02-15T07:34:53;31.83;;;11.07;;
71464;SDS011;59274;49.874;9.154;2023-02-15T07:37:18;29.00;;;10.60;;
71464;SDS011;59274;49.874;9.154;2023-02-15T07:39:43;32.67;;;10.65;;
71464;SDS011;59274;49.874;9.154;2023-02-15T07:42:09;27.93;;;10.47;;
71464;SDS011;59274;49.874;9.154;2023-02-15T07:44:34;30.73;;;11.53;;
71464;SDS011;59274;49.874;9.154;2023-02-15T07:47:00;30.73;;;11.20;;
71464;SDS011;59274;49.874;9.154;2023-02-15T07:49:25;29.80;;;11.57;;
71464;SDS011;59274;49.874;9.154;2023-02-15T07:51:50;29.80;;;10.97;;
71464;SDS011;59274;49.874;9.154;2023-02-15T07:54:16;28.03;;;10.63;;
71464;SDS011;59274;49.874;9.154;2023-02-15T07:56:41;30.15;;;11.00;;
71464;SDS011;59274;49.874;9.154;2023-02-15T07:59:09;26.53;;;10.30;;
71464;SDS011;59274;49.874;9.154;2023-02-15T08:01:35;29.52;;;10.98;;
71464;SDS011;59274;49.874;9.154;2023-02-15T08:04:03;25.98;;;9.95;;
71464;SDS011;59274;49.874;9.154;2023-02-15T08:06:31;27.20;;;10.95;;
71464;SDS011;59274;49.874;9.154;2023-02-15T08:08:58;28.15;;;11.10;;
71464;SDS011;59274;49.874;9.154;2023-02-15T08:11:25;28.90;;;11.07;;
71464;SDS011;59274;49.874;9.154;2023-02-15T08:21:43;25.63;;;9.68;;
71464;SDS011;59274;49.874;9.154;2023-02-15T08:24:11;30.30;;;10.82;;
71464;SDS011;59274;49.874;9.154;2023-02-15T08:26:40;25.10;;;10.13;;
71464;SDS011;59274;49.874;9.154;2023-02-15T08:29:08;25.60;;;10.70;;
71464;SDS011;59274;49.874;9.154;2023-02-15T08:31:37;24.25;;;9.90;;
71464;SDS011;59274;49.874;9.154;2023-02-15T08:34:03;25.83;;;10.43;;
71464;SDS011;59274;49.874;9.154;2023-02-15T08:36:29;31.53;;;11.47;;
71464;SDS011;59274;49.874;9.154;2023-02-15T08:39:00;26.38;;;9.80;;
71464;SDS011;59274;49.874;9.154;2023-02-15T08:41:28;25.42;;;10.25;;
71464;SDS011;59274;49.874;9.154;2023-02-15T08:43:56;27.38;;;9.95;;
71464;SDS011;59274;49.874;9.154;2023-02-15T08:46:25;24.75;;;9.85;;
71464;SDS011;59274;49.874;9.154;2023-02-15T08:48:52;25.10;;;9.90;;
71464;SDS011;59274;49.874;9.154;2023-02-15T08:51:19;27.15;;;10.13;;
71464;SDS011;59274;49.874;9.154;2023-02-15T08:53:47;26.17;;;10.73;;
71464;SDS011;59274;49.874;9.154;2023-02-15T08:56:14;22.98;;;9.63;;
71464;SDS011;59274;49.874;9.154;2023-02-15T08:58:40;25.13;;;9.30;;
71464;SDS011;59274;49.874;9.154;2023-02-15T09:01:13;23.60;;;9.60;;
71464;SDS011;59274;49.874;9.154;2023-02-15T09:03:43;24.17;;;9.90;;
71464;SDS011;59274;49.874;9.154;2023-02-15T09:06:12;29.33;;;9.33;;
71464;SDS011;59274;49.874;9.154;2023-02-15T09:08:39;26.02;;;9.45;;
71464;SDS011;59274;49.874;9.154;2023-02-15T09:11:09;26.57;;;9.43;;
71464;SDS011;59274;49.874;9.154;2023-02-15T09:13:53;23.02;;;9.10;;
71464;SDS011;59274;49.874;9.154;2023-02-15T09:16:30;23.15;;;9.52;;
71464;SDS011;59274;49.874;9.154;2023-02-15T09:18:57;23.02;;;9.65;;
71464;SDS011;59274;49.874;9.154;2023-02-15T09:21:24;26.83;;;9.77;;
71464;SDS011;59274;49.874;9.154;2023-02-15T09:23:51;24.75;;;10.48;;
71464;SDS011;59274;49.874;9.154;2023-02-15T09:26:20;22.38;;;9.18;;
71464;SDS011;59274;49.874;9.154;2023-02-15T09:28:48;21.80;;;8.50;;
71464;SDS011;59274;49.874;9.154;2023-02-15T09:31:18;22.75;;;9.73;;
71464;SDS011;59274;49.874;9.154;2023-02-15T09:33:46;32.00;;;12.17;;
71464;SDS011;59274;49.874;9.154;2023-02-15T09:36:22;24.33;;;10.57;;
71464;SDS011;59274;49.874;9.154;2023-02-15T09:38:52;25.15;;;10.13;;
71464;SDS011;59274;49.874;9.154;2023-02-15T09:50:14;22.10;;;10.07;;
71464;SDS011;59274;49.874;9.154;2023-02-15T10:00:24;20.90;;;8.90;;
71464;SDS011;59274;49.874;9.154;2023-02-15T10:08:19;19.00;;;8.32;;
71464;SDS011;59274;49.874;9.154;2023-02-15T10:18:38;23.20;;;10.27;;
71464;SDS011;59274;49.874;9.154;2023-02-15T10:26:48;20.57;;;9.77;;
71464;SDS011;59274;49.874;9.154;2023-02-15T10:34:38;21.02;;;9.75;;
71464;SDS011;59274;49.874;9.154;2023-02-15T10:37:23;26.47;;;11.00;;
71464;SDS011;59274;49.874;9.154;2023-02-15T10:48:30;19.77;;;9.13;;
71464;SDS011;59274;49.874;9.154;2023-02-15T10:51:23;23.40;;;9.77;;
71464;SDS011;59274;49.874;9.154;2023-02-15T10:56:27;21.15;;;9.43;;
71464;SDS011;59274;49.874;9.154;2023-02-15T11:01:55;22.90;;;10.38;;
71464;SDS011;59274;49.874;9.154;2023-02-15T11:04:39;21.93;;;10.20;;
71464;SDS011;59274;49.874;9.154;2023-02-15T11:09:49;24.17;;;10.27;;
71464;SDS011;59274;49.874;9.154;2023-02-15T11:12:21;20.17;;;9.55;;
71464;SDS011;59274;49.874;9.154;2023-02-15T11:14:57;24.42;;;10.35;;
71464;SDS011;59274;49.874;9.154;2023-02-15T11:17:50;21.83;;;10.13;;
71464;SDS011;59274;49.874;9.154;2023-02-15T11:22:54;20.50;;;9.70;;
71464;SDS011;59274;49.874;9.154;2023-02-15T11:25:30;21.70;;;10.00;;
71464;SDS011;59274;49.874;9.154;2023-02-15T11:27:58;23.77;;;10.70;;
71464;SDS011;59274;49.874;9.154;2023-02-15T11:30:30;22.60;;;10.13;;
71464;SDS011;59274;49.874;9.154;2023-02-15T11:33:20;19.92;;;10.13;;
71464;SDS011;59274;49.874;9.154;2023-02-15T11:38:29;28.67;;;10.83;;
71464;SDS011;59274;49.874;9.154;2023-02-15T11:41:08;19.08;;;9.50;;
71464;SDS011;59274;49.874;9.154;2023-02-15T11:46:20;20.20;;;9.20;;
71464;SDS011;59274;49.874;9.154;2023-02-15T11:48:46;22.10;;;10.77;;
71464;SDS011;59274;49.874;9.154;2023-02-15T11:51:14;21.83;;;9.80;;
71464;SDS011;59274;49.874;9.154;2023-02-15T11:53:42;21.00;;;10.00;;
71464;SDS011;59274;49.874;9.154;2023-02-15T11:56:16;20.23;;;9.98;;
71464;SDS011;59274;49.874;9.154;2023-02-15T11:58:44;20.85;;;10.25;;
71464;SDS011;59274;49.874;9.154;2023-02-15T12:01:21;22.40;;;10.55;;
71464;SDS011;59274;49.874;9.154;2023-02-15T12:06:43;21.17;;;9.93;;
71464;SDS011;59274;49.874;9.154;2023-02-15T12:11:54;18.70;;;9.38;;
71464;SDS011;59274;49.874;9.154;2023-02-15T12:14:52;20.98;;;10.60;;
71464;SDS011;59274;49.874;9.154;2023-02-15T12:17:20;20.30;;;9.53;;
71464;SDS011;59274;49.874;9.154;2023-02-15T12:19:48;20.88;;;10.07;;
71464;SDS011;59274;49.874;9.154;2023-02-15T12:25:19;19.77;;;9.75;;
71464;SDS011;59274;49.874;9.154;2023-02-15T12:27:48;23.10;;;10.63;;
71464;SDS011;59274;49.874;9.154;2023-02-15T12:32:56;21.15;;;10.05;;
71464;SDS011;59274;49.874;9.154;2023-02-15T12:38:05;19.85;;;9.40;;
71464;SDS011;59274;49.874;9.154;2023-02-15T12:41:19;22.35;;;10.38;;
71464;SDS011;59274;49.874;9.154;2023-02-15T12:46:40;22.63;;;10.50;;
71464;SDS011;59274;49.874;9.154;2023-02-15T12:49:17;19.25;;;10.15;;
71464;SDS011;59274;49.874;9.154;2023-02-15T12:54:31;21.40;;;9.70;;
71464;SDS011;59274;49.874;9.154;2023-02-15T12:56:58;23.02;;;10.88;;
71464;SDS011;59274;49.874;9.154;2023-02-15T12:59:24;20.92;;;10.73;;
71464;SDS011;59274;49.874;9.154;2023-02-15T13:01:53;19.40;;;9.93;;
71464;SDS011;59274;49.874;9.154;2023-02-15T13:04:26;20.98;;;11.02;;
71464;SDS011;59274;49.874;9.154;2023-02-15T13:06:55;22.90;;;10.73;;
71464;SDS011;59274;49.874;9.154;2023-02-15T13:11:56;21.15;;;10.95;;
71464;SDS011;59274;49.874;9.154;2023-02-15T13:14:33;25.70;;;10.50;;
71464;SDS011;59274;49.874;9.154;2023-02-15T13:17:00;19.77;;;10.50;;
71464;SDS011;59274;49.874;9.154;2023-02-15T13:22:45;24.13;;;10.40;;
71464;SDS011;59274;49.874;9.154;2023-02-15T13:25:12;18.33;;;9.60;;
71464;SDS011;59274;49.874;9.154;2023-02-15T13:27:41;22.00;;;10.07;;
71464;SDS011;59274;49.874;9.154;2023-02-15T13:32:52;21.07;;;9.87;;
71464;SDS011;59274;49.874;9.154;2023-02-15T13:35:22;19.50;;;9.75;;
71464;SDS011;59274;49.874;9.154;2023-02-15T13:40:47;19.83;;;9.25;;
71464;SDS011;59274;49.874;9.154;2023-02-15T13:51:42;20.05;;;9.07;;
71464;SDS011;59274;49.874;9.154;2023-02-15T13:54:27;20.02;;;9.65;;
71464;SDS011;59274;49.874;9.154;2023-02-15T13:59:54;20.03;;;9.90;;
71464;SDS011;59274;49.874;9.154;2023-02-15T14:21:27;19.30;;;9.88;;
71464;SDS011;59274;49.874;9.154;2023-02-15T14:24:00;20.17;;;10.32;;
71464;SDS011;59274;49.874;9.154;2023-02-15T14:31:45;19.60;;;10.00;;
71464;SDS011;59274;49.874;9.154;2023-02-15T14:34:36;20.98;;;9.60;;
71464;SDS011;59274;49.874;9.154;2023-02-15T14:37:02;20.83;;;10.38;;
71464;SDS011;59274;49.874;9.154;2023-02-15T14:45:29;21.10;;;9.68;;
71464;SDS011;59274;49.874;9.154;2023-02-15T14:48:02;20.75;;;9.98;;
71464;SDS011;59274;49.874;9.154;2023-02-15T14:50:38;18.67;;;9.23;;
71464;SDS011;59274;49.874;9.154;2023-02-15T14:53:15;18.13;;;9.50;;
71464;SDS011;59274;49.874;9.154;2023-02-15T14:56:05;24.90;;;11.15;;
71464;SDS011;59274;49.874;9.154;2023-02-15T15:01:16;20.13;;;9.80;;
71464;SDS011;59274;49.874;9.154;2023-02-15T15:03:55;20.75;;;10.15;;
71464;SDS011;59274;49.874;9.154;2023-02-15T15:06:26;19.33;;;10.00;;
71464;SDS011;59274;49.874;9.154;2023-02-15T15:08:55;21.30;;;9.68;;
71464;SDS011;59274;49.874;9.154;2023-02-15T15:13:55;21.33;;;10.30;;
71464;SDS011;59274;49.874;9.154;2023-02-15T15:16:28;21.42;;;10.25;;
71464;SDS011;59274;49.874;9.154;2023-02-15T15:18:54;21.07;;;10.07;;
71464;SDS011;59274;49.874;9.154;2023-02-15T15:30:49;19.67;;;10.50;;
71464;SDS011;59274;49.874;9.154;2023-02-15T15:35:34;20.05;;;10.85;;
71464;SDS011;59274;49.874;9.154;2023-02-15T15:48:59;21.45;;;10.13;;
71464;SDS011;59274;49.874;9.154;2023-02-15T15:51:31;19.95;;;10.52;;
71464;SDS011;59274;49.874;9.154;2023-02-15T15:53:58;22.17;;;9.88;;
71464;SDS011;59274;49.874;9.154;2023-02-15T15:56:30;20.65;;;10.80;;
71464;SDS011;59274;49.874;9.154;2023-02-15T15:59:06;24.73;;;10.87;;
71464;SDS011;59274;49.874;9.154;2023-02-15T16:01:40;24.85;;;11.35;;
71464;SDS011;59274;49.874;9.154;2023-02-15T16:04:21;27.55;;;12.60;;
71464;SDS011;59274;49.874;9.154;2023-02-15T16:06:49;23.00;;;11.00;;
71464;SDS011;59274;49.874;9.154;2023-02-15T16:11:52;25.70;;;11.57;;
71464;SDS011;59274;49.874;9.154;2023-02-15T16:14:23;23.30;;;11.35;;
71464;SDS011;59274;49.874;9.154;2023-02-15T16:16:51;26.23;;;11.80;;
71464;SDS011;59274;49.874;9.154;2023-02-15T16:19:24;25.73;;;11.43;;
71464;SDS011;59274;49.874;9.154;2023-02-15T16:21:53;24.67;;;11.23;;
71464;SDS011;59274;49.874;9.154;2023-02-15T16:27:33;26.48;;;10.95;;
71464;SDS011;59274;49.874;9.154;2023-02-15T16:30:16;26.60;;;11.43;;
71464;SDS011;59274;49.874;9.154;2023-02-15T16:32:42;27.42;;;11.73;;
71464;SDS011;59274;49.874;9.154;2023-02-15T16:35:12;27.90;;;11.82;;
71464;SDS011;59274;49.874;9.154;2023-02-15T16:37:39;28.73;;;11.43;;
71464;SDS011;59274;49.874;9.154;2023-02-15T16:40:05;25.70;;;12.10;;
71464;SDS011;59274;49.874;9.154;2023-02-15T16:42:31;26.60;;;11.53;;
71464;SDS011;59274;49.874;9.154;2023-02-15T16:45:06;30.02;;;12.63;;
71464;SDS011;59274;49.874;9.154;2023-02-15T16:47:40;27.02;;;11.90;;
71464;SDS011;59274;49.874;9.154;2023-02-15T16:50:16;26.83;;;11.43;;
71464;SDS011;59274;49.874;9.154;2023-02-15T16:52:43;28.77;;;13.15;;
71464;SDS011;59274;49.874;9.154;2023-02-15T16:55:25;26.47;;;11.60;;
71464;SDS011;59274;49.874;9.154;2023-02-15T16:57:56;27.73;;;11.88;;
71464;SDS011;59274;49.874;9.154;2023-02-15T17:00:26;28.58;;;12.63;;
71464;SDS011;59274;49.874;9.154;2023-02-15T17:02:59;28.67;;;12.00;;
71464;SDS011;59274;49.874;9.154;2023-02-15T17:05:33;30.83;;;12.82;;
71464;SDS011;59274;49.874;9.154;2023-02-15T17:13:28;30.00;;;12.50;;
71464;SDS011;59274;49.874;9.154;2023-02-15T17:18:32;31.65;;;13.98;;
71464;SDS011;59274;49.874;9.154;2023-02-15T17:21:11;28.47;;;12.80;;
71464;SDS011;59274;49.874;9.154;2023-02-15T17:23:51;30.02;;;13.10;;
71464;SDS011;59274;49.874;9.154;2023-02-15T17:26:25;31.23;;;13.02;;
71464;SDS011;59274;49.874;9.154;2023-02-15T17:31:24;33.35;;;13.93;;
71464;SDS011;59274;49.874;9.154;2023-02-15T17:33:56;29.63;;;13.13;;
71464;SDS011;59274;49.874;9.154;2023-02-15T17:36:24;30.80;;;13.45;;
71464;SDS011;59274;49.874;9.154;2023-02-15T17:41:21;32.35;;;13.73;;
71464;SDS011;59274;49.874;9.154;2023-02-15T17:43:50;29.77;;;12.38;;
71464;SDS011;59274;49.874;9.154;2023-02-15T17:46:16;31.47;;;13.27;;
71464;SDS011;59274;49.874;9.154;2023-02-15T17:48:44;32.72;;;14.73;;
71464;SDS011;59274;49.874;9.154;2023-02-15T17:51:12;29.90;;;13.87;;
71464;SDS011;59274;49.874;9.154;2023-02-15T17:53:39;33.72;;;14.40;;
71464;SDS011;59274;49.874;9.154;2023-02-15T17:56:05;30.08;;;13.13;;
71464;SDS011;59274;49.874;9.154;2023-02-15T17:58:36;30.48;;;12.80;;
71464;SDS011;59274;49.874;9.154;2023-02-15T18:01:04;29.50;;;13.35;;
71464;SDS011;59274;49.874;9.154;2023-02-15T18:03:51;32.57;;;13.27;;
71464;SDS011;59274;49.874;9.154;2023-02-15T18:06:40;34.42;;;13.35;;
71464;SDS011;59274;49.874;9.154;2023-02-15T18:09:26;32.28;;;13.27;;
71464;SDS011;59274;49.874;9.154;2023-02-15T18:12:18;34.90;;;14.38;;
71464;SDS011;59274;49.874;9.154;2023-02-15T18:14:46;32.25;;;13.82;;
71464;SDS011;59274;49.874;9.154;2023-02-15T18:17:13;32.83;;;14.13;;
71464;SDS011;59274;49.874;9.154;2023-02-15T18:19:40;32.45;;;14.40;;
71464;SDS011;59274;49.874;9.154;2023-02-15T18:22:10;31.42;;;13.93;;
71464;SDS011;59274;49.874;9.154;2023-02-15T18:24:37;38.13;;;14.63;;
71464;SDS011;59274;49.874;9.154;2023-02-15T18:27:03;33.57;;;14.00;;
71464;SDS011;59274;49.874;9.154;2023-02-15T18:29:29;32.70;;;14.10;;